createdAt,value
2017-04-29T00:00:11.535Z,18.60
2017-04-29T00:01:13.604Z,18.60
2017-04-29T00:02:12.479Z,18.60
2017-04-29T00:03:13.469Z,18.60
2017-04-29T00:04:12.143Z,18.60
2017-04-29T00:05:09.914Z,18.60
2017-04-29T00:06:11.762Z,18.60
2017-04-29T00:07:12.506Z,18.60
2017-04-29T00:08:11.854Z,18.60
2017-04-29T00:09:11.039Z,18.60
2017-04-29T00:10:12.105Z,18.60
2017-04-29T00:11:11.620Z,18.60
2017-04-29T00:12:12.334Z,18.60
2017-04-29T00:13:12.627Z,18.60
2017-04-29T00:14:10.797Z,18.60
2017-04-29T00:15:11.322Z,18.60
2017-04-29T00:16:12.832Z,18.60
2017-04-29T00:17:11.641Z,18.60
2017-04-29T00:18:13.757Z,18.60
2017-04-29T00:19:12.337Z,18.60
2017-04-29T00:20:11.881Z,18.60
2017-04-29T00:21:12.295Z,18.60
2017-04-29T00:22:11.817Z,18.60
2017-04-29T00:23:12.191Z,18.60
2017-04-29T00:24:11.935Z,18.60
2017-04-29T00:25:11.055Z,18.60
2017-04-29T00:26:12.322Z,18.60
2017-04-29T00:27:11.280Z,18.60
2017-04-29T00:28:12.219Z,18.60
2017-04-29T00:29:11.376Z,18.60
2017-04-29T00:30:12.194Z,18.60
2017-04-29T00:31:11.404Z,18.60
2017-04-29T00:32:11.595Z,18.60
2017-04-29T00:33:11.701Z,18.60
2017-04-29T00:34:12.655Z,18.60
2017-04-29T00:35:12.734Z,18.60
2017-04-29T00:36:12.385Z,18.60
2017-04-29T00:37:12.658Z,18.60
2017-04-29T00:38:12.574Z,18.60
2017-04-29T00:39:11.790Z,18.60
2017-04-29T00:40:11.237Z,18.60
2017-04-29T00:41:11.405Z,18.60
2017-04-29T00:42:12.313Z,18.60
2017-04-29T00:43:11.282Z,18.60
2017-04-29T00:44:11.494Z,18.60
2017-04-29T00:45:12.291Z,18.60
2017-04-29T00:46:11.419Z,18.60
2017-04-29T00:47:12.947Z,18.60
2017-04-29T00:48:12.791Z,18.60
2017-04-29T00:49:12.947Z,18.60
2017-04-29T00:50:13.266Z,18.60
2017-04-29T00:51:13.141Z,18.60
2017-04-29T00:52:11.138Z,18.60
2017-04-29T00:53:09.616Z,18.60
2017-04-29T00:54:11.256Z,18.60
2017-04-29T00:55:12.608Z,18.60
2017-04-29T00:56:12.660Z,18.60
2017-04-29T00:57:11.837Z,18.60
2017-04-29T00:58:12.553Z,18.60
2017-04-29T00:59:12.549Z,18.60
2017-04-29T01:00:11.955Z,18.60
2017-04-29T01:01:11.013Z,18.60
2017-04-29T01:02:11.336Z,18.60
2017-04-29T01:03:11.258Z,18.60
2017-04-29T01:04:13.994Z,18.60
2017-04-29T01:05:11.438Z,18.60
2017-04-29T01:06:12.765Z,18.60
2017-04-29T01:07:11.366Z,18.60
2017-04-29T01:08:13.102Z,18.60
2017-04-29T01:09:12.989Z,18.60
2017-04-29T01:10:12.309Z,18.60
2017-04-29T01:11:12.225Z,18.60
2017-04-29T01:12:11.898Z,18.60
2017-04-29T01:13:11.036Z,18.60
2017-04-29T01:14:13.976Z,18.60
2017-04-29T01:15:11.220Z,18.60
2017-04-29T01:16:13.239Z,18.60
2017-04-29T01:17:12.217Z,18.60
2017-04-29T01:18:11.753Z,18.60
2017-04-29T01:19:13.218Z,18.60
2017-04-29T01:20:14.009Z,18.60
2017-04-29T01:21:13.366Z,18.60
2017-04-29T01:22:12.277Z,18.60
2017-04-29T01:23:11.322Z,18.60
2017-04-29T01:24:09.609Z,18.60
2017-04-29T01:25:12.302Z,18.60
2017-04-29T01:26:11.970Z,18.60
2017-04-29T01:27:12.840Z,18.60
2017-04-29T01:28:09.694Z,18.60
2017-04-29T01:29:11.263Z,18.60
2017-04-29T01:30:11.713Z,18.60
2017-04-29T01:31:11.064Z,18.60
2017-04-29T01:32:09.659Z,18.60
2017-04-29T01:33:11.176Z,18.60
2017-04-29T01:34:11.873Z,18.60
2017-04-29T01:35:13.135Z,18.60
2017-04-29T01:36:08.970Z,18.60
2017-04-29T01:37:10.202Z,18.60
2017-04-29T01:38:12.627Z,18.60
2017-04-29T01:39:11.692Z,18.60
2017-04-29T01:40:11.252Z,18.60
2017-04-29T01:41:11.911Z,18.60
2017-04-29T01:42:12.594Z,18.60
2017-04-29T01:43:12.439Z,18.60
2017-04-29T01:44:10.391Z,18.60
2017-04-29T01:45:12.781Z,18.60
2017-04-29T01:46:12.629Z,18.60
2017-04-29T01:47:12.614Z,18.60
2017-04-29T01:48:11.699Z,18.60
2017-04-29T01:49:12.313Z,18.60
2017-04-29T01:50:11.628Z,18.60
2017-04-29T01:51:10.552Z,18.60
2017-04-29T01:52:11.153Z,18.60
2017-04-29T01:53:11.466Z,18.60
2017-04-29T01:54:12.058Z,18.60
2017-04-29T01:55:08.576Z,18.60
2017-04-29T01:56:13.014Z,18.60
2017-04-29T01:57:12.897Z,18.60
2017-04-29T01:58:10.415Z,18.60
2017-04-29T01:59:13.147Z,18.60
2017-04-29T02:00:11.280Z,18.60
2017-04-29T02:01:11.966Z,18.60
2017-04-29T02:02:11.686Z,18.60
2017-04-29T02:03:12.433Z,18.60
2017-04-29T02:04:13.330Z,18.60
2017-04-29T02:05:11.614Z,18.60
2017-04-29T02:06:11.675Z,18.60
2017-04-29T02:07:11.804Z,18.60
2017-04-29T02:08:12.478Z,18.60
2017-04-29T02:09:12.039Z,18.60
2017-04-29T02:10:11.321Z,18.60
2017-04-29T02:11:13.153Z,18.60
2017-04-29T02:12:12.771Z,18.60
2017-04-29T02:13:12.322Z,18.60
2017-04-29T02:14:12.539Z,18.60
2017-04-29T02:15:13.221Z,18.60
2017-04-29T02:16:11.955Z,18.60
2017-04-29T02:17:12.722Z,18.60
2017-04-29T02:18:12.384Z,18.60
2017-04-29T02:19:12.303Z,18.60
2017-04-29T02:20:13.067Z,18.60
2017-04-29T02:21:12.659Z,18.60
2017-04-29T02:22:12.369Z,18.60
2017-04-29T02:23:13.183Z,18.60
2017-04-29T02:24:12.783Z,18.60
2017-04-29T02:25:11.933Z,18.60
2017-04-29T02:26:12.977Z,18.60
2017-04-29T02:27:14.183Z,18.60
2017-04-29T02:28:12.815Z,18.60
2017-04-29T02:29:13.605Z,18.60
2017-04-29T02:30:12.880Z,18.60
2017-04-29T02:31:13.152Z,18.60
2017-04-29T02:32:12.363Z,18.60
2017-04-29T02:33:13.162Z,18.60
2017-04-29T02:34:12.302Z,18.60
2017-04-29T02:35:12.700Z,18.60
2017-04-29T02:36:10.115Z,18.60
2017-04-29T02:37:11.515Z,18.60
2017-04-29T02:38:12.331Z,18.60
2017-04-29T02:39:12.609Z,18.60
2017-04-29T02:40:11.961Z,18.60
2017-04-29T02:41:11.198Z,18.60
2017-04-29T02:42:11.485Z,18.60
2017-04-29T02:43:11.693Z,18.60
2017-04-29T02:44:12.351Z,18.60
2017-04-29T02:45:11.923Z,18.60
2017-04-29T02:46:09.675Z,18.60
2017-04-29T02:47:14.103Z,18.60
2017-04-29T02:48:11.635Z,18.60
2017-04-29T02:49:12.235Z,18.60
2017-04-29T02:50:11.941Z,18.60
2017-04-29T02:51:11.717Z,18.60
2017-04-29T02:52:12.333Z,18.60
2017-04-29T02:53:12.640Z,18.60
2017-04-29T02:54:12.254Z,18.60
2017-04-29T02:55:13.177Z,18.60
2017-04-29T02:56:11.821Z,18.60
2017-04-29T02:57:13.048Z,18.60
2017-04-29T02:58:11.775Z,18.60
2017-04-29T02:59:14.120Z,18.60
2017-04-29T03:00:11.123Z,18.60
2017-04-29T03:01:11.375Z,18.60
2017-04-29T03:02:12.479Z,18.60
2017-04-29T03:03:12.547Z,18.60
2017-04-29T03:04:11.750Z,18.60
2017-04-29T03:05:11.875Z,18.60
2017-04-29T03:06:11.986Z,18.60
2017-04-29T03:07:11.887Z,18.60
2017-04-29T03:08:11.419Z,18.60
2017-04-29T03:09:12.025Z,18.60
2017-04-29T03:10:11.604Z,18.60
2017-04-29T03:11:12.719Z,18.60
2017-04-29T03:12:12.391Z,18.60
2017-04-29T03:13:12.960Z,18.60
2017-04-29T03:14:13.139Z,18.60
2017-04-29T03:15:12.014Z,18.60
2017-04-29T03:16:11.733Z,18.60
2017-04-29T03:17:12.915Z,18.60
2017-04-29T03:18:10.492Z,18.60
2017-04-29T03:19:12.304Z,18.60
2017-04-29T03:20:11.394Z,18.60
2017-04-29T03:21:11.450Z,18.60
2017-04-29T03:22:13.505Z,18.60
2017-04-29T03:23:13.962Z,18.60
2017-04-29T03:24:11.905Z,18.60
2017-04-29T03:25:12.932Z,18.60
2017-04-29T03:26:12.859Z,18.60
2017-04-29T03:27:12.747Z,18.60
2017-04-29T03:28:12.626Z,18.60
2017-04-29T03:29:11.712Z,18.60
2017-04-29T03:30:12.521Z,18.60
2017-04-29T03:31:11.418Z,18.60
2017-04-29T03:32:12.289Z,18.60
2017-04-29T03:33:13.033Z,18.60
2017-04-29T03:34:11.134Z,18.60
2017-04-29T03:35:11.962Z,18.60
2017-04-29T03:36:11.583Z,18.60
2017-04-29T03:37:14.234Z,18.60
2017-04-29T03:38:11.260Z,18.60
2017-04-29T03:39:12.036Z,18.60
2017-04-29T03:40:11.081Z,18.60
2017-04-29T03:41:11.085Z,18.60
2017-04-29T03:42:11.934Z,18.60
2017-04-29T03:43:10.983Z,18.60
2017-04-29T03:44:12.074Z,18.60
2017-04-29T03:45:11.811Z,18.60
2017-04-29T03:46:11.852Z,18.60
2017-04-29T03:47:12.665Z,18.60
2017-04-29T03:48:11.797Z,18.60
2017-04-29T03:49:12.515Z,18.60
2017-04-29T03:50:12.736Z,18.60
2017-04-29T03:51:11.841Z,18.60
2017-04-29T03:52:12.165Z,18.60
2017-04-29T03:53:12.007Z,18.60
2017-04-29T03:54:12.101Z,18.60
2017-04-29T03:55:11.788Z,18.60
2017-04-29T03:56:12.017Z,18.60
2017-04-29T03:57:12.351Z,18.60
2017-04-29T03:58:11.963Z,18.60
2017-04-29T03:59:11.960Z,18.60
2017-04-29T04:00:11.071Z,18.60
2017-04-29T04:01:12.005Z,18.60
2017-04-29T04:02:11.848Z,18.60
2017-04-29T04:03:11.969Z,18.60
2017-04-29T04:04:11.237Z,18.60
2017-04-29T04:05:11.330Z,18.60
2017-04-29T04:06:11.877Z,18.60
2017-04-29T04:07:10.355Z,18.60
2017-04-29T04:08:13.783Z,18.60
2017-04-29T04:09:11.939Z,18.60
2017-04-29T04:10:11.627Z,18.60
2017-04-29T04:11:14.006Z,18.60
2017-04-29T04:12:12.700Z,18.60
2017-04-29T04:13:11.832Z,18.60
2017-04-29T04:14:12.805Z,18.60
2017-04-29T04:15:12.597Z,18.60
2017-04-29T04:16:11.744Z,18.60
2017-04-29T04:17:12.021Z,18.60
2017-04-29T04:18:12.087Z,18.60
2017-04-29T04:19:10.431Z,18.60
2017-04-29T04:20:12.097Z,18.60
2017-04-29T04:21:11.324Z,18.60
2017-04-29T04:22:12.050Z,18.60
2017-04-29T04:23:12.341Z,18.60
2017-04-29T04:24:12.080Z,18.60
2017-04-29T04:25:14.830Z,18.60
2017-04-29T04:26:14.105Z,18.60
2017-04-29T04:27:11.765Z,18.60
2017-04-29T04:28:13.596Z,18.60
2017-04-29T04:29:12.273Z,18.60
2017-04-29T04:30:12.033Z,18.60
2017-04-29T04:31:11.160Z,18.60
2017-04-29T04:32:12.304Z,18.60
2017-04-29T04:33:14.058Z,18.60
2017-04-29T04:34:12.323Z,18.60
2017-04-29T04:35:11.957Z,18.60
2017-04-29T04:36:12.963Z,18.60
2017-04-29T04:37:13.990Z,18.60
2017-04-29T04:38:13.808Z,18.60
2017-04-29T04:39:12.014Z,18.60
2017-04-29T04:40:11.368Z,18.60
2017-04-29T04:41:12.297Z,18.60
2017-04-29T04:42:12.908Z,18.60
2017-04-29T04:43:12.926Z,18.60
2017-04-29T04:44:09.726Z,18.60
2017-04-29T04:45:11.747Z,18.60
2017-04-29T04:46:12.974Z,18.60
2017-04-29T04:47:12.825Z,18.60
2017-04-29T04:48:10.136Z,18.60
2017-04-29T04:49:11.819Z,18.60
2017-04-29T04:50:12.583Z,18.60
2017-04-29T04:51:12.312Z,18.50
2017-04-29T04:52:11.997Z,18.60
2017-04-29T04:53:13.046Z,18.60
2017-04-29T04:54:11.349Z,18.50
2017-04-29T04:55:12.190Z,18.60
2017-04-29T04:56:11.396Z,18.50
2017-04-29T04:57:12.257Z,18.50
2017-04-29T04:58:12.155Z,18.60
2017-04-29T04:59:11.585Z,18.60
2017-04-29T05:00:11.697Z,18.50
2017-04-29T05:01:11.831Z,18.50
2017-04-29T05:02:12.265Z,18.50
2017-04-29T05:03:11.226Z,18.50
2017-04-29T05:04:09.196Z,18.60
2017-04-29T05:05:12.277Z,18.50
2017-04-29T05:06:11.315Z,18.50
2017-04-29T05:07:11.262Z,18.50
2017-04-29T05:08:13.376Z,18.50
2017-04-29T05:09:12.078Z,18.50
2017-04-29T05:10:11.763Z,18.50
2017-04-29T05:11:11.904Z,18.50
2017-04-29T05:12:10.398Z,18.50
2017-04-29T05:13:11.874Z,18.50
2017-04-29T05:14:09.815Z,18.60
2017-04-29T05:15:09.310Z,18.50
2017-04-29T05:16:12.218Z,18.50
2017-04-29T05:17:12.593Z,18.60
2017-04-29T05:18:11.813Z,18.50
2017-04-29T05:19:11.985Z,18.50
2017-04-29T05:20:11.938Z,18.50
2017-04-29T05:21:12.759Z,18.50
2017-04-29T05:22:12.565Z,18.60
2017-04-29T05:23:11.614Z,18.50
2017-04-29T05:24:11.925Z,18.50
2017-04-29T05:25:12.412Z,18.50
2017-04-29T05:26:12.304Z,18.50
2017-04-29T05:27:11.328Z,18.50
2017-04-29T05:28:11.480Z,18.50
2017-04-29T05:29:12.026Z,18.60
2017-04-29T05:30:11.771Z,18.50
2017-04-29T05:31:12.667Z,18.50
2017-04-29T05:32:12.302Z,18.50
2017-04-29T05:33:08.498Z,18.50
2017-04-29T05:34:12.021Z,18.60
2017-04-29T05:35:08.475Z,18.60
2017-04-29T05:36:10.434Z,18.60
2017-04-29T05:37:10.979Z,18.60
2017-04-29T05:38:12.058Z,18.60
2017-04-29T05:39:11.156Z,18.50
2017-04-29T05:40:13.220Z,18.60
2017-04-29T05:41:11.746Z,18.60
2017-04-29T05:42:10.437Z,18.60
2017-04-29T05:43:10.987Z,18.50
2017-04-29T05:44:11.475Z,18.60
2017-04-29T05:45:11.599Z,18.60
2017-04-29T05:46:09.602Z,18.60
2017-04-29T05:47:08.333Z,18.60
2017-04-29T05:48:14.134Z,18.60
2017-04-29T05:49:14.039Z,18.60
2017-04-29T05:50:11.116Z,18.50
2017-04-29T05:51:09.531Z,18.60
2017-04-29T05:52:13.272Z,18.50
2017-04-29T05:53:09.672Z,18.60
2017-04-29T05:54:11.651Z,18.60
2017-04-29T05:55:08.851Z,18.60
2017-04-29T05:56:11.438Z,18.50
2017-04-29T05:57:11.876Z,18.50
2017-04-29T05:58:11.131Z,18.50
2017-04-29T05:59:11.242Z,18.50
2017-04-29T06:00:11.458Z,18.50
2017-04-29T06:01:12.278Z,18.50
2017-04-29T06:02:11.423Z,18.50
2017-04-29T06:03:11.685Z,18.50
2017-04-29T06:04:12.033Z,18.60
2017-04-29T06:05:11.917Z,18.60
2017-04-29T06:06:10.329Z,18.60
2017-04-29T06:07:13.563Z,18.60
2017-04-29T06:08:12.224Z,18.60
2017-04-29T06:09:11.225Z,18.60
2017-04-29T06:10:11.939Z,18.60
2017-04-29T06:11:11.909Z,18.60
2017-04-29T06:12:12.854Z,18.60
2017-04-29T06:13:10.032Z,18.60
2017-04-29T06:14:11.846Z,18.60
2017-04-29T06:15:12.294Z,18.60
2017-04-29T06:16:11.226Z,18.60
2017-04-29T06:17:11.641Z,18.60
2017-04-29T06:18:12.417Z,18.60
2017-04-29T06:19:12.336Z,18.60
2017-04-29T06:20:13.369Z,18.60
2017-04-29T06:21:11.508Z,18.60
2017-04-29T06:22:08.775Z,18.50
2017-04-29T06:23:11.374Z,18.50
2017-04-29T06:24:11.342Z,18.60
2017-04-29T06:25:12.347Z,18.60
2017-04-29T06:26:11.507Z,18.60
2017-04-29T06:27:11.652Z,18.60
2017-04-29T06:28:12.595Z,18.60
2017-04-29T06:29:11.758Z,18.60
2017-04-29T06:30:13.564Z,18.60
2017-04-29T06:31:09.961Z,18.60
2017-04-29T06:32:12.284Z,18.60
2017-04-29T06:33:12.291Z,18.60
2017-04-29T06:34:11.387Z,18.60
2017-04-29T06:35:09.958Z,18.60
2017-04-29T06:36:12.419Z,18.60
2017-04-29T06:37:11.538Z,18.60
2017-04-29T06:38:13.453Z,18.50
2017-04-29T06:39:12.565Z,18.60
2017-04-29T06:40:14.528Z,18.60
2017-04-29T06:41:11.544Z,18.60
2017-04-29T06:42:12.307Z,18.60
2017-04-29T06:43:11.343Z,18.60
2017-04-29T06:44:12.345Z,18.60
2017-04-29T06:45:12.019Z,18.60
2017-04-29T06:46:11.153Z,18.60
2017-04-29T06:47:11.211Z,18.60
2017-04-29T06:48:11.963Z,18.50
2017-04-29T06:49:11.165Z,18.60
2017-04-29T06:50:12.132Z,18.60
2017-04-29T06:51:11.761Z,18.60
2017-04-29T06:52:12.595Z,18.60
2017-04-29T06:53:13.297Z,18.60
2017-04-29T06:54:11.947Z,18.60
2017-04-29T06:55:11.118Z,18.60
2017-04-29T06:56:13.970Z,18.60
2017-04-29T06:57:11.875Z,18.50
2017-04-29T06:58:12.721Z,18.60
2017-04-29T06:59:11.717Z,18.60
2017-04-29T07:00:12.283Z,18.60
2017-04-29T07:01:11.327Z,18.50
2017-04-29T07:02:13.320Z,18.50
2017-04-29T07:03:11.975Z,18.60
2017-04-29T07:04:12.340Z,18.60
2017-04-29T07:05:11.907Z,18.60
2017-04-29T07:06:12.285Z,18.60
2017-04-29T07:07:12.650Z,18.60
2017-04-29T07:08:11.670Z,18.60
2017-04-29T07:09:09.871Z,18.60
2017-04-29T07:10:11.269Z,18.60
2017-04-29T07:11:12.989Z,18.60
2017-04-29T07:12:12.039Z,18.60
2017-04-29T07:13:11.107Z,18.60
2017-04-29T07:14:11.337Z,18.60
2017-04-29T07:15:09.764Z,18.60
2017-04-29T07:16:11.523Z,18.60
2017-04-29T07:17:12.307Z,18.60
2017-04-29T07:18:12.438Z,18.60
2017-04-29T07:19:11.822Z,18.60
2017-04-29T07:20:13.539Z,18.60
2017-04-29T07:21:13.231Z,18.60
2017-04-29T07:22:12.205Z,18.60
2017-04-29T07:23:11.350Z,18.60
2017-04-29T07:24:12.469Z,18.60
2017-04-29T07:25:11.380Z,18.60
2017-04-29T07:26:09.456Z,18.60
2017-04-29T07:27:10.114Z,18.60
2017-04-29T07:28:14.706Z,18.60
2017-04-29T07:29:11.839Z,18.60
2017-04-29T07:30:12.741Z,18.60
2017-04-29T07:31:13.571Z,18.60
2017-04-29T07:32:11.762Z,18.60
2017-04-29T07:33:13.219Z,18.60
2017-04-29T07:34:09.801Z,18.60
2017-04-29T07:35:12.268Z,18.60
2017-04-29T07:36:12.184Z,18.60
2017-04-29T07:37:11.395Z,18.60
2017-04-29T07:38:12.430Z,18.60
2017-04-29T07:39:12.101Z,18.60
2017-04-29T07:40:11.444Z,18.60
2017-04-29T07:41:09.386Z,18.60
2017-04-29T07:42:12.349Z,18.60
2017-04-29T07:43:14.068Z,18.60
2017-04-29T07:44:11.066Z,18.60
2017-04-29T07:45:11.821Z,18.60
2017-04-29T07:46:12.408Z,18.60
2017-04-29T07:47:12.084Z,18.60
2017-04-29T07:48:11.269Z,18.60
2017-04-29T07:49:12.034Z,18.60
2017-04-29T07:50:11.032Z,18.60
2017-04-29T07:51:12.887Z,18.60
2017-04-29T07:52:11.998Z,18.60
2017-04-29T07:53:13.032Z,18.60
2017-04-29T07:54:11.185Z,18.60
2017-04-29T07:55:11.428Z,18.60
2017-04-29T07:56:12.517Z,18.60
2017-04-29T07:57:12.181Z,18.60
2017-04-29T07:58:12.886Z,18.60
2017-04-29T07:59:12.608Z,18.60
2017-04-29T08:00:11.914Z,18.60
2017-04-29T08:01:11.746Z,18.60
2017-04-29T08:02:11.885Z,18.60
2017-04-29T08:03:11.990Z,18.60
2017-04-29T08:04:11.203Z,18.60
2017-04-29T08:05:12.054Z,18.60
2017-04-29T08:06:11.749Z,18.60
2017-04-29T08:07:12.453Z,18.60
2017-04-29T08:08:11.571Z,18.60
2017-04-29T08:09:13.447Z,18.60
2017-04-29T08:10:11.572Z,18.60
2017-04-29T08:11:12.329Z,18.60
2017-04-29T08:12:11.945Z,18.60
2017-04-29T08:13:11.170Z,18.60
2017-04-29T08:14:11.825Z,18.60
2017-04-29T08:15:12.400Z,18.60
2017-04-29T08:16:11.614Z,18.60
2017-04-29T08:17:12.305Z,18.60
2017-04-29T08:18:11.504Z,18.60
2017-04-29T08:19:11.625Z,18.60
2017-04-29T08:20:13.156Z,18.70
2017-04-29T08:21:11.342Z,18.70
2017-04-29T08:22:09.934Z,18.70
2017-04-29T08:23:11.482Z,18.70
2017-04-29T08:24:10.081Z,18.70
2017-04-29T08:25:11.620Z,18.70
2017-04-29T08:26:12.469Z,18.70
2017-04-29T08:27:12.312Z,18.70
2017-04-29T08:28:12.303Z,18.70
2017-04-29T08:29:11.273Z,18.70
2017-04-29T08:30:11.998Z,18.70
2017-04-29T08:31:11.084Z,18.70
2017-04-29T08:32:11.234Z,18.70
2017-04-29T08:33:11.378Z,18.70
2017-04-29T08:34:12.156Z,18.70
2017-04-29T08:35:09.833Z,18.70
2017-04-29T08:36:11.434Z,18.70
2017-04-29T08:37:09.285Z,18.70
2017-04-29T08:38:13.774Z,18.70
2017-04-29T08:39:12.879Z,18.70
2017-04-29T08:40:10.761Z,18.70
2017-04-29T08:41:14.102Z,18.70
2017-04-29T08:42:12.062Z,18.70
2017-04-29T08:43:11.642Z,18.70
2017-04-29T08:44:12.278Z,18.70
2017-04-29T08:45:11.321Z,18.70
2017-04-29T08:46:11.366Z,18.70
2017-04-29T08:47:12.074Z,18.70
2017-04-29T08:48:11.374Z,18.70
2017-04-29T08:49:12.153Z,18.70
2017-04-29T08:50:09.140Z,18.70
2017-04-29T08:51:12.827Z,18.70
2017-04-29T08:52:11.981Z,18.70
2017-04-29T08:53:11.703Z,18.70
2017-04-29T08:54:11.752Z,18.70
2017-04-29T08:55:12.044Z,18.70
2017-04-29T08:56:12.865Z,18.70
2017-04-29T08:57:11.139Z,18.70
2017-04-29T08:58:13.524Z,18.70
2017-04-29T08:59:11.552Z,18.70
2017-04-29T09:00:13.704Z,18.70
2017-04-29T09:01:11.726Z,18.70
2017-04-29T09:02:12.806Z,18.70
2017-04-29T09:03:11.994Z,18.70
2017-04-29T09:04:12.760Z,18.70
2017-04-29T09:05:12.516Z,18.70
2017-04-29T09:06:11.472Z,18.70
2017-04-29T09:07:12.135Z,18.70
2017-04-29T09:08:11.185Z,18.70
2017-04-29T09:09:11.988Z,18.70
2017-04-29T09:10:13.020Z,18.70
2017-04-29T09:11:11.683Z,18.70
2017-04-29T09:12:11.888Z,18.70
2017-04-29T09:13:12.702Z,18.70
2017-04-29T09:14:11.440Z,18.70
2017-04-29T09:15:11.785Z,18.70
2017-04-29T09:16:13.136Z,18.70
2017-04-29T09:17:11.336Z,18.70
2017-04-29T09:18:11.336Z,18.70
2017-04-29T09:19:11.920Z,18.80
2017-04-29T09:20:12.215Z,18.80
2017-04-29T09:21:14.043Z,18.80
2017-04-29T09:22:11.644Z,18.80
2017-04-29T09:23:13.721Z,18.80
2017-04-29T09:24:12.276Z,18.80
2017-04-29T09:25:11.971Z,18.80
2017-04-29T09:26:13.016Z,18.80
2017-04-29T09:27:09.901Z,18.80
2017-04-29T09:28:12.099Z,18.80
2017-04-29T09:29:11.289Z,18.80
2017-04-29T09:30:09.457Z,18.90
2017-04-29T09:31:12.717Z,18.80
2017-04-29T09:32:12.611Z,18.80
2017-04-29T09:33:11.697Z,18.90
2017-04-29T09:34:11.776Z,18.80
2017-04-29T09:35:13.560Z,18.90
2017-04-29T09:36:11.698Z,18.90
2017-04-29T09:37:11.980Z,18.90
2017-04-29T09:38:11.942Z,18.90
2017-04-29T09:39:11.701Z,18.90
2017-04-29T09:40:09.923Z,18.90
2017-04-29T09:41:12.401Z,18.90
2017-04-29T09:42:12.066Z,18.90
2017-04-29T09:43:11.900Z,18.90
2017-04-29T09:44:13.294Z,18.90
2017-04-29T09:45:11.543Z,18.90
2017-04-29T09:46:11.538Z,18.90
2017-04-29T09:47:11.681Z,18.90
2017-04-29T09:48:12.288Z,18.90
2017-04-29T09:49:12.279Z,18.90
2017-04-29T09:50:11.816Z,18.90
2017-04-29T09:51:12.005Z,18.90
2017-04-29T09:52:11.315Z,19.00
2017-04-29T09:53:10.017Z,19.00
2017-04-29T09:54:11.474Z,19.00
2017-04-29T09:55:12.753Z,19.00
2017-04-29T09:56:14.202Z,19.00
2017-04-29T09:57:08.405Z,19.00
2017-04-29T09:58:14.027Z,19.00
2017-04-29T09:59:09.840Z,19.00
2017-04-29T10:00:13.323Z,19.00
2017-04-29T10:01:11.374Z,19.00
2017-04-29T10:02:12.136Z,19.00
2017-04-29T10:03:11.632Z,19.00
2017-04-29T10:04:09.472Z,18.90
2017-04-29T10:05:11.867Z,19.00
2017-04-29T10:06:12.302Z,19.00
2017-04-29T10:07:12.074Z,19.00
2017-04-29T10:08:11.117Z,19.00
2017-04-29T10:09:13.469Z,19.00
2017-04-29T10:10:11.656Z,19.00
2017-04-29T10:11:12.043Z,19.00
2017-04-29T10:12:13.011Z,19.00
2017-04-29T10:13:11.723Z,19.00
2017-04-29T10:14:11.918Z,18.90
2017-04-29T10:15:11.727Z,18.90
2017-04-29T10:16:12.153Z,19.00
2017-04-29T10:17:10.784Z,19.00
2017-04-29T10:18:11.395Z,18.90
2017-04-29T10:19:14.359Z,18.90
2017-04-29T10:20:12.075Z,18.90
2017-04-29T10:21:10.913Z,18.90
2017-04-29T10:22:13.495Z,18.90
2017-04-29T10:23:11.683Z,18.90
2017-04-29T10:24:13.615Z,18.90
2017-04-29T10:25:12.672Z,18.90
2017-04-29T10:26:12.331Z,18.90
2017-04-29T10:27:11.889Z,18.90
2017-04-29T10:28:13.335Z,18.90
2017-04-29T10:29:12.304Z,18.90
2017-04-29T10:30:12.054Z,18.90
2017-04-29T10:31:11.750Z,18.90
2017-04-29T10:32:11.852Z,18.90
2017-04-29T10:33:12.734Z,18.90
2017-04-29T10:34:11.836Z,18.90
2017-04-29T10:35:12.854Z,18.80
2017-04-29T10:36:10.311Z,18.70
2017-04-29T10:37:14.070Z,18.60
2017-04-29T10:38:12.044Z,18.60
2017-04-29T10:39:12.999Z,18.50
2017-04-29T10:40:11.644Z,18.50
2017-04-29T10:41:11.884Z,18.40
2017-04-29T10:42:11.094Z,18.40
2017-04-29T10:43:09.769Z,18.40
2017-04-29T10:44:11.331Z,18.40
2017-04-29T10:45:13.483Z,18.50
2017-04-29T10:46:12.294Z,18.50
2017-04-29T10:47:09.096Z,18.60
2017-04-29T10:48:11.903Z,18.60
2017-04-29T10:49:12.729Z,18.60
2017-04-29T10:50:12.368Z,18.60
2017-04-29T10:51:11.394Z,18.70
2017-04-29T10:52:11.657Z,18.70
2017-04-29T10:53:12.582Z,18.70
2017-04-29T10:54:12.261Z,18.70
2017-04-29T10:55:09.982Z,18.70
2017-04-29T10:56:11.972Z,18.70
2017-04-29T10:57:11.284Z,18.70
2017-04-29T10:58:12.311Z,18.70
2017-04-29T10:59:09.076Z,18.70
2017-04-29T11:00:13.011Z,18.80
2017-04-29T11:01:12.711Z,18.80
2017-04-29T11:02:10.297Z,18.80
2017-04-29T11:03:11.708Z,18.80
2017-04-29T11:04:10.078Z,18.80
2017-04-29T11:05:12.884Z,18.80
2017-04-29T11:06:12.887Z,18.80
2017-04-29T11:07:14.503Z,18.80
2017-04-29T11:08:11.158Z,18.80
2017-04-29T11:09:14.340Z,18.80
2017-04-29T11:10:13.330Z,18.80
2017-04-29T11:11:12.312Z,18.80
2017-04-29T11:12:12.714Z,18.80
2017-04-29T11:13:13.478Z,18.80
2017-04-29T11:14:12.000Z,18.80
2017-04-29T11:15:13.823Z,18.80
2017-04-29T11:16:12.240Z,18.80
2017-04-29T11:17:12.583Z,18.70
2017-04-29T11:18:12.477Z,18.70
2017-04-29T11:19:13.754Z,18.70
2017-04-29T11:20:12.278Z,18.70
2017-04-29T11:21:12.286Z,18.70
2017-04-29T11:22:11.456Z,18.70
2017-04-29T11:23:11.593Z,18.70
2017-04-29T11:24:11.810Z,18.70
2017-04-29T11:25:11.969Z,18.70
2017-04-29T11:26:11.505Z,18.70
2017-04-29T11:27:13.109Z,18.70
2017-04-29T11:28:12.394Z,18.70
2017-04-29T11:29:11.442Z,18.70
2017-04-29T11:30:14.479Z,18.70
2017-04-29T11:31:13.337Z,18.70
2017-04-29T11:32:12.385Z,18.80
2017-04-29T11:33:11.548Z,18.70
2017-04-29T11:34:11.684Z,18.80
2017-04-29T11:35:11.161Z,18.80
2017-04-29T11:36:11.864Z,18.80
2017-04-29T11:37:12.038Z,18.80
2017-04-29T11:38:12.236Z,18.80
2017-04-29T11:39:11.888Z,18.80
2017-04-29T11:40:12.140Z,18.80
2017-04-29T11:41:13.267Z,18.80
2017-04-29T11:42:12.318Z,18.80
2017-04-29T11:43:11.426Z,18.80
2017-04-29T11:44:11.633Z,18.80
2017-04-29T11:45:13.756Z,18.80
2017-04-29T11:46:13.204Z,18.80
2017-04-29T11:47:12.690Z,18.80
2017-04-29T11:48:12.061Z,18.80
2017-04-29T11:49:11.704Z,18.80
2017-04-29T11:50:12.536Z,18.80
2017-04-29T11:51:13.607Z,18.80
2017-04-29T11:52:12.816Z,18.80
2017-04-29T11:53:10.655Z,18.80
2017-04-29T11:54:11.514Z,18.80
2017-04-29T11:55:11.595Z,18.80
2017-04-29T11:56:11.766Z,18.80
2017-04-29T11:57:12.903Z,18.80
2017-04-29T11:58:12.960Z,18.80
2017-04-29T11:59:12.902Z,18.80
2017-04-29T12:00:13.280Z,18.80
2017-04-29T12:01:11.348Z,18.80
2017-04-29T12:02:11.646Z,18.80
2017-04-29T12:03:12.562Z,18.80
2017-04-29T12:04:11.554Z,18.80
2017-04-29T12:05:12.498Z,18.80
2017-04-29T12:06:09.332Z,18.80
2017-04-29T12:07:10.558Z,18.80
2017-04-29T12:08:12.303Z,18.80
2017-04-29T12:09:12.443Z,18.80
2017-04-29T12:10:12.150Z,18.80
2017-04-29T12:11:08.981Z,18.80
2017-04-29T12:12:11.094Z,18.80
2017-04-29T12:13:12.916Z,18.80
2017-04-29T12:14:12.881Z,18.80
2017-04-29T12:15:12.196Z,18.80
2017-04-29T12:16:12.181Z,18.80
2017-04-29T12:17:12.876Z,18.80
2017-04-29T12:18:12.798Z,18.80
2017-04-29T12:19:14.518Z,18.80
2017-04-29T12:20:09.433Z,18.80
2017-04-29T12:21:13.586Z,18.80
2017-04-29T12:22:12.513Z,18.80
2017-04-29T12:23:11.617Z,18.80
2017-04-29T12:24:11.921Z,18.80
2017-04-29T12:25:11.413Z,18.80
2017-04-29T12:26:13.647Z,18.80
2017-04-29T12:27:11.490Z,18.80
2017-04-29T12:28:11.570Z,18.80
2017-04-29T12:29:12.371Z,18.80
2017-04-29T12:30:11.469Z,18.80
2017-04-29T12:31:12.439Z,18.80
2017-04-29T12:32:12.014Z,18.80
2017-04-29T12:33:11.932Z,18.80
2017-04-29T12:34:12.988Z,18.80
2017-04-29T12:35:13.125Z,18.80
2017-04-29T12:36:09.396Z,18.80
2017-04-29T12:37:12.019Z,18.80
2017-04-29T12:38:12.720Z,18.80
2017-04-29T12:39:12.777Z,18.80
2017-04-29T12:40:12.873Z,18.80
2017-04-29T12:41:12.514Z,18.70
2017-04-29T12:42:12.304Z,18.60
2017-04-29T12:43:12.941Z,18.50
2017-04-29T12:44:11.314Z,18.40
2017-04-29T12:45:12.681Z,18.30
2017-04-29T12:46:11.706Z,18.30
2017-04-29T12:47:12.676Z,18.30
2017-04-29T12:48:11.547Z,18.20
2017-04-29T12:49:11.667Z,18.10
2017-04-29T12:50:12.308Z,18.10
2017-04-29T12:51:11.439Z,18.10
2017-04-29T12:52:12.878Z,18.00